Cherokee, Alabama
Current Conditions -  °F | °C
As of 12:53 PM on Tuesday 21 Oct 2014 (Local Time) from KMSL Reporting Station
Clear Clear  
Wind Chill: 75°   Ceiling: Unl
Heat Index: 75°   Visibility: 10mi
Dew Point: 45°   Wind: 6mph
Humidity: 34%   Direction: 10°N
Pressure: 30.06"   Gusts: NA
Location:  34.76°N, 87.97°W
Report Text: KMSL 211753Z AUTO 01005KT 10SM CLR 24/07 A3006 RMK AO2 SLP176 6//// T02390072 10239 20083 58011
Loading
Personal Weather Stations






























Interactive Weather Map
Tropical Storm Tracking
New forecast layout! Learn more

10-Day Weather Forecast

Advertisements
Track Severe Weather on mobile